KLUL/LUL METAR and TAF weather

Enter ICAO airport designator
Station Type Date Time Source
KLUL METAR 2019/07/18 11:15 UTC NOAA

KLUL 181115Z AUTO 00000KT 10SM CLR 24/24 A3009 RMK A02 T02430236


Station Type Date Time Source
KLUL Decoded METAR 2019/07/18 11:15 UTC NOAA

Station name not available
Jul 18, 2019 - 07:15 AM EDT / 2019.07.18 1115 UTC
Wind: Calm:0
Visibility: 10 mile(s):0
Sky conditions: clear
Temperature: 75.7 F (24.3 C)
Dew Point: 74.5 F (23.6 C)
Relative Humidity: 95%
Pressure (altimeter): 30.09 in. Hg (1018 hPa)
ob: KLUL 181115Z AUTO 00000KT 10SM CLR 24/24 A3009 RMK A02 T02430236
cycle: 11

Station Type Date Time Source
KLUL TAF UTC NOAA

Error!

Example: see airport list